Bookmark and Share
Track history (hours):
 

Ivory Point

Last reported at 2013-Jul-09 15:07 UTC. Time now 2014-Apr-18 03:15 UTC.
Position N 38°42' W 009°10'.
Warning: this ship's position is months out of date.

Length 182 m; draft 8.2 m.

Type: Tanker. MMSI: 247218500.

NotesDate/timePositionNaut miles runAvg speedWind from/ knotsBaromVisibWave heightAir tempDewpointWater temp
2013-Jul-09 15:07N 38°42' W 009°10'0 0.0
2013-Jul-09 14:31N 38°42' W 009°10'0 0.0
2013-Jul-09 13:31N 38°42' W 009°10'0 0.0
2013-Jul-09 12:31N 38°42' W 009°10'0 0.0
2013-Jul-09 11:32N 38°42' W 009°10'0 0.0
2013-Jul-09 10:31N 38°42' W 009°10'0 0.0
2013-Jul-09 09:31N 38°42' W 009°10'0 0.0
2013-Jul-09 08:31N 38°42' W 009°10'0 0.0
2013-Jul-09 07:31N 38°42' W 009°10'0 0.0
2013-Jul-09 06:31N 38°42' W 009°10'0 0.0
2013-Jul-09 05:31N 38°42' W 009°10'0 0.0
2013-Jul-09 04:31N 38°42' W 009°10'0 0.0
2013-Jul-09 03:31N 38°42' W 009°10'0 0.0
2013-Jul-09 02:31N 38°42' W 009°10'0 0.0
2013-Jul-09 01:31N 38°42' W 009°10'0 0.0
2013-Jul-09 00:31N 38°42' W 009°10'0 0.0
2013-Jul-08 23:31N 38°42' W 009°10'0 0.0
2013-Jul-08 22:31N 38°42' W 009°10'0 0.0
2013-Jul-08 21:31N 38°42' W 009°10'0 0.0
2013-Jul-08 20:31N 38°42' W 009°10'0 0.0
2013-Jul-08 19:32N 38°42' W 009°10'0 0.0
2013-Jul-08 18:31N 38°42' W 009°10'0 0.0
2013-Jul-08 17:31N 38°42' W 009°10'0 0.0
2013-Jul-08 16:31N 38°42' W 009°10'0 0.0
2013-Jul-08 15:31N 38°42' W 009°10'0 0.0
2013-Jul-08 14:31N 38°42' W 009°10'0 0.0
2013-Jul-08 13:28N 38°42' W 009°10'0 0.0
2013-Jul-08 12:31N 38°42' W 009°10'3 3.1
2013-Jul-08 11:31N 38°42' W 009°06'0 0.0
2013-Jul-08 10:31N 38°42' W 009°06'0 0.2
2013-Jul-08 09:32N 38°42' W 009°07'0 0.0
2013-Jul-08 08:32N 38°42' W 009°07'0 0.0
2013-Jul-08 07:32N 38°42' W 009°07'0 0.0
2013-Jul-08 06:31N 38°42' W 009°07'0 0.0
2013-Jul-08 05:31N 38°42' W 009°07'0 0.1
2013-Jul-08 04:32N 38°42' W 009°07'0 0.2
2013-Jul-08 03:32N 38°42' W 009°06'0 0.0
2013-Jul-08 02:32N 38°42' W 009°06'0 0.0
2013-Jul-08 01:32N 38°42' W 009°06'0 0.0
2013-Jul-08 00:32N 38°42' W 009°06'0 0.0
2013-Jul-07 23:31N 38°42' W 009°06'0 0.1
2013-Jul-07 22:32N 38°42' W 009°07'0 0.2
2013-Jul-07 21:31N 38°42' W 009°07'0 0.0
2013-Jul-07 20:31N 38°42' W 009°07'0 0.0
2013-Jul-07 19:31N 38°42' W 009°07'0 0.0
2013-Jul-07 18:31N 38°42' W 009°07'0 0.0
2013-Jul-07 17:31N 38°42' W 009°07'0 0.1
2013-Jul-07 16:32N 38°42' W 009°07'0 0.2
2013-Jul-07 15:31N 38°42' W 009°06'0 0.0
2013-Jul-07 14:31N 38°42' W 009°06'0 0.0
2013-Jul-07 13:32N 38°42' W 009°06'0 0.0
2013-Jul-07 12:32N 38°42' W 009°06'0 0.0
2013-Jul-07 11:32N 38°42' W 009°06'0 0.0
2013-Jul-07 10:32N 38°42' W 009°06'0 0.2
2013-Jul-07 09:32N 38°42' W 009°07'0 0.0
2013-Jul-07 08:31N 38°42' W 009°07'0 0.0
2013-Jul-07 07:32N 38°42' W 009°07'0 0.0
2013-Jul-07 06:32N 38°42' W 009°07'0 0.0
2013-Jul-07 05:32N 38°42' W 009°07'0 0.1
2013-Jul-07 04:32N 38°42' W 009°07'0 0.2
2013-Jul-07 03:32N 38°42' W 009°06'0 0.1
2013-Jul-07 02:32N 38°42' W 009°06'0 0.0
2013-Jul-07 01:31N 38°42' W 009°06'2 2.1
2013-Jul-07 00:33N 38°42' W 009°09'1212.0
2013-Jul-06 23:33N 38°37' W 009°23'6 2.9
2013-Jul-06 21:33N 38°31' W 009°24'1212.5
2013-Jul-06 20:33N 38°19' W 009°23'1111.4
2013-Jul-06 19:33N 38°07' W 009°23'1 0.6
2013-Jul-06 18:33N 38°08' W 009°23'1413.9
2013-Jul-06 17:33N 37°54' W 009°23'1413.8
2013-Jul-06 16:33N 37°40' W 009°22'1514.4
2013-Jul-06 15:33N 37°26' W 009°22'1414.4
2013-Jul-06 14:33N 37°11' W 009°21'1515.0
2013-Jul-06 13:34N 36°57' W 009°20'1414.5
2013-Jul-06 12:33N 36°45' W 009°09'1413.9
2013-Jul-06 11:32N 36°35' W 008°57'1514.9
2013-Jul-06 10:33N 36°23' W 008°47'1414.2
2013-Jul-06 09:32N 36°11' W 008°36'1313.6
2013-Jul-06 08:33N 35°60' W 008°27'  

Dump ship's entire track history

sailing weather and tide predictions

Ivory Point — IBFX — position and weather